Time;durP1;ratioP1;P1;durP2;ratioP2;P2;SDS_P1;SDS_P2;PMS_P1;PMS_P2;Temp;Humidity;BMP_temperature;BMP_pressure;BME280_temperature;BME280_humidity;BME280_pressure;Samples;Min_cycle;Max_cycle;Signal;HPM_P1;HPM_P2
2021/12/11 00:00:06;;;;;;;25.47;15.40;;;;;;;;;;5031911;28;20021;-71
2021/12/11 00:02:33;;;;;;;23.57;16.90;;;;;;;;;;5031635;28;20081;-71
2021/12/11 00:05:01;;;;;;;27.07;17.97;;;;;;;;;;5032282;28;20025;-71
2021/12/11 00:07:29;;;;;;;27.27;17.30;;;;;;;;;;5031964;28;20064;-70
2021/12/11 00:09:57;;;;;;;28.27;19.30;;;;;;;;;;5031219;28;20083;-70
2021/12/11 00:12:34;;;;;;;33.10;19.73;;;;;;;;;;5031651;28;20033;-70
2021/12/11 00:15:09;;;;;;;31.57;19.63;;;;;;;;;;5032227;28;20025;-70
2021/12/11 00:17:35;;;;;;;30.13;19.37;;;;;;;;;;5032477;28;20478;-71
2021/12/11 00:20:03;;;;;;;28.87;18.30;;;;;;;;;;5032894;28;20025;-70
2021/12/11 00:22:30;;;;;;;25.77;17.47;;;;;;;;;;5031258;28;20026;-71
2021/12/11 00:25:02;;;;;;;25.33;16.77;;;;;;;;;;5031390;28;20029;-71
2021/12/11 00:27:29;;;;;;;24.07;15.50;;;;;;;;;;5031932;28;20036;-71
2021/12/11 00:29:55;;;;;;;21.20;14.03;;;;;;;;;;5031357;28;20028;-71
2021/12/11 00:32:23;;;;;;;17.60;12.00;;;;;;;;;;5031937;28;20029;-71
2021/12/11 00:34:50;;;;;;;19.73;12.83;;;;;;;;;;5031241;28;20032;-71
2021/12/11 00:37:18;;;;;;;20.03;13.47;;;;;;;;;;5032098;28;20018;-71
2021/12/11 00:39:46;;;;;;;21.97;14.07;;;;;;;;;;5030824;28;20033;-71
2021/12/11 00:42:13;;;;;;;22.17;14.43;;;;;;;;;;5031668;28;20083;-71
2021/12/11 00:44:47;;;;;;;25.67;16.97;;;;;;;;;;5031463;28;20037;-71
2021/12/11 00:47:14;;;;;;;29.63;18.53;;;;;;;;;;5031460;28;20658;-71
2021/12/11 00:50:00;;;;;;;30.53;18.50;;;;;;;;;;5030943;28;20022;-70
2021/12/11 00:52:32;;;;;;;25.47;18.00;;;;;;;;;;5031638;28;20079;-71
2021/12/11 00:54:58;;;;;;;29.30;16.90;;;;;;;;;;5031876;28;20464;-71
2021/12/11 00:57:25;;;;;;;25.03;17.07;;;;;;;;;;5031629;28;20096;-71
2021/12/11 01:00:12;;;;;;;29.57;18.30;;;;;;;;;;5031298;28;20049;-71
2021/12/11 01:02:38;;;;;;;25.13;16.53;;;;;;;;;;5031541;28;20103;-71
2021/12/11 01:05:07;;;;;;;24.73;17.43;;;;;;;;;;5032364;28;20036;-70
2021/12/11 01:07:34;;;;;;;25.17;17.30;;;;;;;;;;5034571;28;20544;-71
2021/12/11 01:10:12;;;;;;;22.87;16.30;;;;;;;;;;5034720;28;20057;-71
2021/12/11 01:12:48;;;;;;;26.13;18.60;;;;;;;;;;5035080;28;20017;-71
2021/12/11 01:15:20;;;;;;;26.80;17.80;;;;;;;;;;5034187;28;20104;-70
2021/12/11 01:18:10;;;;;;;26.90;17.40;;;;;;;;;;5034671;28;20474;-71
2021/12/11 01:20:47;;;;;;;24.37;16.53;;;;;;;;;;5035177;28;20033;-71
2021/12/11 01:23:34;;;;;;;25.93;16.90;;;;;;;;;;5035754;28;20121;-71
2021/12/11 01:26:01;;;;;;;22.33;15.30;;;;;;;;;;5034558;28;20036;-71
2021/12/11 01:28:27;;;;;;;25.30;17.23;;;;;;;;;;5034543;28;20026;-71
2021/12/11 01:30:54;;;;;;;22.33;15.73;;;;;;;;;;5034339;28;20030;-72
2021/12/11 01:33:21;;;;;;;22.43;14.47;;;;;;;;;;5035410;28;20084;-71
2021/12/11 01:35:47;;;;;;;21.40;14.37;;;;;;;;;;5034884;28;20026;-71
2021/12/11 01:38:13;;;;;;;17.93;12.03;;;;;;;;;;5035630;28;20036;-71
2021/12/11 01:40:40;;;;;;;20.13;12.67;;;;;;;;;;5034751;28;20512;-71
2021/12/11 01:43:07;;;;;;;17.23;12.07;;;;;;;;;;5034650;28;20097;-71
2021/12/11 01:45:34;;;;;;;15.50;10.97;;;;;;;;;;5034977;28;20025;-71
2021/12/11 01:48:00;;;;;;;15.83;9.33;;;;;;;;;;5034547;28;20123;-70
2021/12/11 01:50:32;;;;;;;10.77;7.83;;;;;;;;;;5034144;28;20104;-71
2021/12/11 01:53:05;;;;;;;10.87;8.27;;;;;;;;;;5033627;28;20025;-71
2021/12/11 01:55:33;;;;;;;14.37;7.63;;;;;;;;;;5034348;28;20030;-71
2021/12/11 01:58:00;;;;;;;12.23;7.77;;;;;;;;;;5033052;28;20047;-71
2021/12/11 02:00:29;;;;;;;11.07;8.03;;;;;;;;;;5031861;28;20051;-71
2021/12/11 02:02:56;;;;;;;10.00;6.60;;;;;;;;;;5031282;28;20085;-71
2021/12/11 02:05:26;;;;;;;10.47;7.37;;;;;;;;;;5031965;28;20482;-70
2021/12/11 02:07:54;;;;;;;9.27;6.73;;;;;;;;;;5034241;28;20041;-71
2021/12/11 02:10:38;;;;;;;10.60;7.30;;;;;;;;;;5032269;28;20052;-71
2021/12/11 02:13:07;;;;;;;9.33;6.80;;;;;;;;;;5033650;28;20051;-71
2021/12/11 02:15:37;;;;;;;12.03;6.70;;;;;;;;;;5033376;28;20025;-71
2021/12/11 02:18:15;;;;;;;8.43;6.50;;;;;;;;;;5031685;28;20113;-71
2021/12/11 02:20:44;;;;;;;9.10;6.57;;;;;;;;;;5033408;28;20025;-71
2021/12/11 02:23:12;;;;;;;10.30;6.83;;;;;;;;;;5033493;28;20026;-71
2021/12/11 02:25:41;;;;;;;9.23;6.57;;;;;;;;;;5034301;28;20091;-71
2021/12/11 02:28:10;;;;;;;8.70;6.43;;;;;;;;;;5033498;28;20378;-70
2021/12/11 02:30:36;;;;;;;9.00;6.57;;;;;;;;;;5033104;28;20029;-72
2021/12/11 02:33:15;;;;;;;16.03;9.80;;;;;;;;;;5033298;28;20373;-72
2021/12/11 02:35:41;;;;;;;18.43;10.70;;;;;;;;;;5032649;28;20036;-71
2021/12/11 02:38:11;;;;;;;16.77;10.03;;;;;;;;;;5033774;28;20033;-72
2021/12/11 02:40:40;;;;;;;16.60;11.30;;;;;;;;;;5032904;28;20359;-71
2021/12/11 02:43:09;;;;;;;16.47;11.37;;;;;;;;;;5033016;28;20482;-72
2021/12/11 02:45:42;;;;;;;19.03;13.07;;;;;;;;;;5032659;28;20021;-70
2021/12/11 02:48:10;;;;;;;23.33;12.97;;;;;;;;;;5032541;28;20033;-72
2021/12/11 02:50:42;;;;;;;19.07;13.00;;;;;;;;;;5032862;28;20017;-72
2021/12/11 02:53:13;;;;;;;16.73;11.43;;;;;;;;;;5033827;28;20032;-71
2021/12/11 02:55:43;;;;;;;17.33;11.80;;;;;;;;;;5033216;28;20040;-71
2021/12/11 02:58:16;;;;;;;18.67;11.10;;;;;;;;;;5032671;28;20025;-72
2021/12/11 03:00:45;;;;;;;15.80;10.70;;;;;;;;;;5032670;28;20067;-71
2021/12/11 03:03:12;;;;;;;15.97;10.27;;;;;;;;;;5032916;28;20199;-72
2021/12/11 03:05:45;;;;;;;14.23;9.87;;;;;;;;;;5032717;28;20036;-71
2021/12/11 03:08:13;;;;;;;14.30;8.23;;;;;;;;;;5033193;28;20056;-71
2021/12/11 03:10:40;;;;;;;12.43;8.77;;;;;;;;;;5032529;28;20485;-71
2021/12/11 03:13:06;;;;;;;13.63;8.43;;;;;;;;;;5032492;28;20454;-72
2021/12/11 03:15:33;;;;;;;12.90;8.67;;;;;;;;;;5032700;28;20104;-72
2021/12/11 03:18:00;;;;;;;11.30;7.93;;;;;;;;;;5032863;28;20582;-70
2021/12/11 03:20:26;;;;;;;11.93;7.50;;;;;;;;;;5032245;28;20432;-72
2021/12/11 03:22:52;;;;;;;12.77;8.00;;;;;;;;;;5032622;28;20635;-72
2021/12/11 03:25:21;;;;;;;8.83;6.27;;;;;;;;;;5032256;28;20025;-71
2021/12/11 03:27:47;;;;;;;7.53;6.10;;;;;;;;;;5030968;28;20112;-71
2021/12/11 03:30:16;;;;;;;9.93;6.63;;;;;;;;;;5031875;28;20013;-72
2021/12/11 03:32:43;;;;;;;8.67;6.27;;;;;;;;;;5031317;28;20030;-72
2021/12/11 03:35:10;;;;;;;9.03;6.37;;;;;;;;;;5032791;28;20053;-71
2021/12/11 03:37:36;;;;;;;10.17;6.93;;;;;;;;;;5032051;28;20474;-72
2021/12/11 03:40:03;;;;;;;9.97;6.47;;;;;;;;;;5031495;28;20071;-71
2021/12/11 03:42:31;;;;;;;8.63;5.57;;;;;;;;;;5032263;28;20100;-72
2021/12/11 03:44:59;;;;;;;11.50;6.30;;;;;;;;;;5032303;28;20026;-72
2021/12/11 03:47:32;;;;;;;8.97;6.70;;;;;;;;;;5032183;28;20094;-71
2021/12/11 03:49:59;;;;;;;10.13;7.30;;;;;;;;;;5032033;28;20021;-71
2021/12/11 03:52:25;;;;;;;8.80;6.50;;;;;;;;;;5031907;28;20075;-70
2021/12/11 03:54:52;;;;;;;8.20;5.40;;;;;;;;;;5031651;28;20033;-71
2021/12/11 03:57:20;;;;;;;5.60;4.30;;;;;;;;;;5031706;28;20018;-71
2021/12/11 03:59:48;;;;;;;5.23;4.13;;;;;;;;;;5031993;28;20479;-71
2021/12/11 04:02:16;;;;;;;5.97;3.97;;;;;;;;;;5031376;28;20077;-71
2021/12/11 04:04:45;;;;;;;6.13;4.50;;;;;;;;;;5031691;28;20021;-71
2021/12/11 04:07:13;;;;;;;6.17;4.50;;;;;;;;;;5031452;28;20033;-71
2021/12/11 04:09:39;;;;;;;6.90;4.73;;;;;;;;;;5031504;28;20026;-71
2021/12/11 04:12:08;;;;;;;7.07;4.90;;;;;;;;;;5031360;28;20084;-71
2021/12/11 04:14:36;;;;;;;4.70;3.63;;;;;;;;;;5032495;28;20022;-72
2021/12/11 04:17:03;;;;;;;5.97;3.83;;;;;;;;;;5031988;28;20040;-72
2021/12/11 04:19:29;;;;;;;7.43;2.77;;;;;;;;;;5031352;28;20025;-71
2021/12/11 04:21:56;;;;;;;5.07;3.07;;;;;;;;;;5030988;28;20096;-71
2021/12/11 04:24:24;;;;;;;5.83;3.80;;;;;;;;;;5031268;28;20028;-71
2021/12/11 04:26:52;;;;;;;6.53;3.90;;;;;;;;;;5031498;28;20038;-71
2021/12/11 04:29:18;;;;;;;5.90;4.00;;;;;;;;;;5031602;28;20025;-71
2021/12/11 04:31:46;;;;;;;6.70;4.70;;;;;;;;;;5031746;28;20376;-71
2021/12/11 04:34:13;;;;;;;6.17;3.63;;;;;;;;;;5031178;28;20072;-70
2021/12/11 04:36:45;;;;;;;6.73;3.33;;;;;;;;;;5031367;28;20087;-71
2021/12/11 04:39:13;;;;;;;3.97;2.87;;;;;;;;;;5031354;28;20033;-72
2021/12/11 04:41:48;;;;;;;4.07;2.53;;;;;;;;;;5031103;28;20404;-71
2021/12/11 04:44:17;;;;;;;3.73;2.57;;;;;;;;;;5031438;28;20109;-71
2021/12/11 04:46:43;;;;;;;3.63;2.13;;;;;;;;;;5031190;28;20041;-71
2021/12/11 04:49:20;;;;;;;2.37;1.63;;;;;;;;;;5030929;28;20481;-71
2021/12/11 04:51:58;;;;;;;2.43;1.60;;;;;;;;;;5031410;28;20030;-71
2021/12/11 04:54:42;;;;;;;8.30;3.97;;;;;;;;;;5031109;28;20477;-71
2021/12/11 04:57:46;;;;;;;2.67;1.63;;;;;;;;;;5031125;28;20532;-72
2021/12/11 05:10:22;;;;;;;0.90;0.57;;;;;;;;;;5030981;28;20474;-71
2021/12/11 05:12:50;;;;;;;2.30;0.60;;;;;;;;;;5030932;28;20021;-71
2021/12/11 05:15:16;;;;;;;0.87;0.60;;;;;;;;;;5031303;28;20022;-71
2021/12/11 05:17:42;;;;;;;1.03;0.40;;;;;;;;;;5031161;28;20075;-73
2021/12/11 05:20:11;;;;;;;1.13;0.60;;;;;;;;;;5030483;28;20478;-72
2021/12/11 05:22:37;;;;;;;0.70;0.50;;;;;;;;;;5031245;28;20033;-72
2021/12/11 05:25:04;;;;;;;0.50;0.50;;;;;;;;;;5031387;28;20033;-71
2021/12/11 05:27:30;;;;;;;0.90;0.57;;;;;;;;;;5030425;28;20037;-71
2021/12/11 05:29:56;;;;;;;0.87;0.30;;;;;;;;;;5030525;28;20025;-71
2021/12/11 05:32:23;;;;;;;0.50;0.30;;;;;;;;;;5030484;28;20029;-71
2021/12/11 05:34:50;;;;;;;0.33;0.20;;;;;;;;;;5030225;28;20096;-72
2021/12/11 05:37:16;;;;;;;0.67;0.30;;;;;;;;;;5030651;28;20127;-72
2021/12/11 05:39:42;;;;;;;0.50;0.30;;;;;;;;;;5030225;28;20033;-71
2021/12/11 05:42:09;;;;;;;3.30;0.40;;;;;;;;;;5030578;28;20375;-71
2021/12/11 05:44:35;;;;;;;0.87;0.30;;;;;;;;;;5030680;28;20025;-72
2021/12/11 05:47:02;;;;;;;1.03;0.40;;;;;;;;;;5030737;28;20128;-71
2021/12/11 05:49:29;;;;;;;0.80;0.50;;;;;;;;;;5030597;28;20079;-71
2021/12/11 05:51:56;;;;;;;0.63;0.30;;;;;;;;;;5031275;28;20033;-71
2021/12/11 05:54:24;;;;;;;1.17;0.30;;;;;;;;;;5033937;28;20025;-71
2021/12/11 05:56:54;;;;;;;0.40;0.30;;;;;;;;;;5034126;28;20056;-73
2021/12/11 05:59:20;;;;;;;0.67;0.53;;;;;;;;;;5033781;28;20029;-72
2021/12/11 06:01:52;;;;;;;0.87;0.60;;;;;;;;;;5034085;28;20449;-72
2021/12/11 06:04:24;;;;;;;4.60;1.10;;;;;;;;;;5033955;28;20018;-72
2021/12/11 06:06:50;;;;;;;1.77;0.90;;;;;;;;;;5033901;28;20029;-72
2021/12/11 06:09:18;;;;;;;0.90;0.50;;;;;;;;;;5033743;28;20482;-72
2021/12/11 06:11:45;;;;;;;1.00;0.40;;;;;;;;;;5033472;28;20049;-71
2021/12/11 06:14:11;;;;;;;1.40;0.70;;;;;;;;;;5034071;28;20071;-72
2021/12/11 06:16:37;;;;;;;5.30;0.90;;;;;;;;;;5034276;28;20094;-72
2021/12/11 06:19:05;;;;;;;0.60;0.40;;;;;;;;;;5033745;28;20036;-71
2021/12/11 06:21:32;;;;;;;1.23;1.00;;;;;;;;;;5032244;28;20109;-71
2021/12/11 06:23:58;;;;;;;2.30;1.47;;;;;;;;;;5033343;28;20051;-71
2021/12/11 06:26:24;;;;;;;1.17;0.77;;;;;;;;;;5033656;28;20089;-71
2021/12/11 06:28:50;;;;;;;1.60;1.10;;;;;;;;;;5033356;28;20018;-72
2021/12/11 06:31:19;;;;;;;1.60;1.10;;;;;;;;;;5033536;28;20021;-71
2021/12/11 06:33:50;;;;;;;1.53;1.10;;;;;;;;;;5033440;28;20022;-72
2021/12/11 06:36:17;;;;;;;2.93;1.70;;;;;;;;;;5033226;28;20025;-72
2021/12/11 06:38:44;;;;;;;3.10;2.20;;;;;;;;;;5033480;28;20026;-71
2021/12/11 06:41:13;;;;;;;3.60;2.00;;;;;;;;;;5033453;28;20020;-71
2021/12/11 06:43:39;;;;;;;4.80;1.60;;;;;;;;;;5033207;28;20025;-72
2021/12/11 06:46:06;;;;;;;3.50;1.27;;;;;;;;;;5032902;28;20028;-71
2021/12/11 06:48:32;;;;;;;2.20;1.40;;;;;;;;;;5032899;28;20030;-71
2021/12/11 06:50:58;;;;;;;2.57;1.57;;;;;;;;;;5034555;28;20031;-72
2021/12/11 06:53:33;;;;;;;2.57;1.77;;;;;;;;;;5034558;28;20030;-70
2021/12/11 06:55:59;;;;;;;3.23;1.80;;;;;;;;;;5034219;28;20068;-70
2021/12/11 06:58:27;;;;;;;6.80;2.03;;;;;;;;;;5034200;28;20025;-72
2021/12/11 07:00:53;;;;;;;4.10;2.57;;;;;;;;;;5033652;28;20509;-69
2021/12/11 07:03:19;;;;;;;3.47;2.20;;;;;;;;;;5033747;28;20033;-72
2021/12/11 07:05:45;;;;;;;3.50;2.43;;;;;;;;;;5034069;28;20032;-71
2021/12/11 07:08:12;;;;;;;3.83;2.40;;;;;;;;;;5034238;28;20086;-71
2021/12/11 07:10:40;;;;;;;3.83;2.60;;;;;;;;;;5033984;28;20482;-71
2021/12/11 07:13:07;;;;;;;4.17;2.57;;;;;;;;;;5032987;28;20036;-72
2021/12/11 07:15:33;;;;;;;7.60;2.30;;;;;;;;;;5033299;28;20021;-73
2021/12/11 07:17:59;;;;;;;4.17;1.73;;;;;;;;;;5034048;28;20068;-72
2021/12/11 07:20:25;;;;;;;4.67;2.90;;;;;;;;;;5033771;28;20030;-71
2021/12/11 07:22:51;;;;;;;7.30;3.20;;;;;;;;;;5033874;28;20026;-72
2021/12/11 07:25:29;;;;;;;4.03;2.70;;;;;;;;;;5031889;28;20030;-71
2021/12/11 07:27:56;;;;;;;4.67;3.10;;;;;;;;;;5030997;28;20041;-71
2021/12/11 07:30:23;;;;;;;4.80;2.83;;;;;;;;;;5031117;28;20470;-71
2021/12/11 07:32:51;;;;;;;4.17;2.87;;;;;;;;;;5033495;28;20104;-72
2021/12/11 07:35:17;;;;;;;4.13;2.70;;;;;;;;;;5033231;28;20029;-71
2021/12/11 07:37:49;;;;;;;5.33;2.97;;;;;;;;;;5033595;28;20092;-72
2021/12/11 07:40:15;;;;;;;4.53;3.10;;;;;;;;;;5032930;28;20021;-71
2021/12/11 07:42:41;;;;;;;6.93;2.83;;;;;;;;;;5033531;28;20363;-71
2021/12/11 07:45:07;;;;;;;11.73;3.10;;;;;;;;;;5033173;28;20087;-72
2021/12/11 07:47:33;;;;;;;9.03;2.80;;;;;;;;;;5031865;28;20371;-72
2021/12/11 07:50:00;;;;;;;4.00;2.63;;;;;;;;;;5033654;28;20030;-72
2021/12/11 07:52:26;;;;;;;5.37;2.80;;;;;;;;;;5033197;28;20030;-72
2021/12/11 07:54:52;;;;;;;8.00;2.60;;;;;;;;;;5032628;28;20029;-75
2021/12/11 07:57:18;;;;;;;5.13;3.17;;;;;;;;;;5032240;28;20073;-74
2021/12/11 07:59:47;;;;;;;5.90;3.13;;;;;;;;;;5032767;28;20049;-78
2021/12/11 08:02:13;;;;;;;4.60;3.17;;;;;;;;;;5030573;28;20057;-70
2021/12/11 08:04:39;;;;;;;4.33;2.83;;;;;;;;;;5032620;28;20032;-69
2021/12/11 08:07:05;;;;;;;6.50;3.10;;;;;;;;;;5031412;28;20067;-71
2021/12/11 08:09:32;;;;;;;4.07;3.17;;;;;;;;;;5031500;28;20034;-71
2021/12/11 08:11:58;;;;;;;6.87;3.63;;;;;;;;;;5031836;28;20057;-71
2021/12/11 08:14:25;;;;;;;5.43;3.50;;;;;;;;;;5028272;28;20104;-70
2021/12/11 08:16:54;;;;;;;4.90;3.50;;;;;;;;;;5030344;28;20032;-71
2021/12/11 08:19:21;;;;;;;5.57;3.80;;;;;;;;;;5032801;28;20010;-72
2021/12/11 08:21:49;;;;;;;5.23;3.17;;;;;;;;;;5032754;28;20101;-72
2021/12/11 08:24:16;;;;;;;5.83;3.37;;;;;;;;;;5033142;28;20028;-71
2021/12/11 08:26:42;;;;;;;8.93;3.97;;;;;;;;;;5033031;28;20064;-72
2021/12/11 08:29:12;;;;;;;5.83;4.03;;;;;;;;;;5031680;28;20028;-75
2021/12/11 08:31:40;;;;;;;4.97;3.23;;;;;;;;;;5030052;28;20447;-72
2021/12/11 08:34:07;;;;;;;5.97;3.87;;;;;;;;;;5028859;28;20071;-72
2021/12/11 08:36:33;;;;;;;6.23;4.23;;;;;;;;;;5032115;28;20025;-73
2021/12/11 08:38:59;;;;;;;5.93;3.57;;;;;;;;;;5033202;28;20084;-72
2021/12/11 08:41:28;;;;;;;5.93;4.20;;;;;;;;;;5032872;28;20022;-70
2021/12/11 08:44:00;;;;;;;7.23;4.03;;;;;;;;;;5032762;28;20045;-70
2021/12/11 08:46:28;;;;;;;7.40;3.93;;;;;;;;;;5029677;28;20037;-74
2021/12/11 08:48:55;;;;;;;7.30;4.10;;;;;;;;;;5030037;28;20048;-72
2021/12/11 08:51:41;;;;;;;8.73;4.37;;;;;;;;;;5032400;28;20132;-72
2021/12/11 08:54:08;;;;;;;6.00;3.83;;;;;;;;;;5031747;28;20505;-72
2021/12/11 08:56:35;;;;;;;7.67;4.70;;;;;;;;;;5032610;28;20025;-72
2021/12/11 08:59:02;;;;;;;8.23;4.73;;;;;;;;;;5030289;28;20038;-73
2021/12/11 09:01:38;;;;;;;10.00;4.57;;;;;;;;;;5029618;28;20050;-72
2021/12/11 09:04:04;;;;;;;6.10;4.50;;;;;;;;;;5031256;28;20080;-72
2021/12/11 09:06:36;;;;;;;7.90;5.03;;;;;;;;;;5032540;28;20048;-72
2021/12/11 09:09:29;;;;;;;6.45;4.70;;;;;;;;;;5032437;28;20026;-71
2021/12/11 09:12:03;;;;;;;8.32;5.40;;;;;;;;;;5029851;28;20044;-73
2021/12/11 09:14:36;;;;;;;8.03;4.53;;;;;;;;;;5032599;28;20552;-71
2021/12/11 09:17:02;;;;;;;6.17;4.27;;;;;;;;;;5032478;28;20040;-71
2021/12/11 09:19:33;;;;;;;6.87;4.10;;;;;;;;;;5032466;28;20363;-71
2021/12/11 09:21:59;;;;;;;8.93;4.33;;;;;;;;;;5032468;28;20057;-71
2021/12/11 09:24:34;;;;;;;10.20;4.97;;;;;;;;;;5029584;28;20461;-71
2021/12/11 09:27:11;;;;;;;7.20;4.53;;;;;;;;;;5032340;28;20076;-71
2021/12/11 09:29:41;;;;;;;7.83;4.57;;;;;;;;;;5034151;28;20025;-71
2021/12/11 09:32:16;;;;;;;8.57;4.90;;;;;;;;;;5034475;28;20029;-71
2021/12/11 09:34:49;;;;;;;7.30;4.40;;;;;;;;;;5036056;28;20445;-72
2021/12/11 09:37:16;;;;;;;6.77;4.57;;;;;;;;;;5035853;28;20038;-72
2021/12/11 09:39:47;;;;;;;10.50;4.43;;;;;;;;;;5035615;28;20029;-72
2021/12/11 09:42:13;;;;;;;6.27;4.10;;;;;;;;;;5035827;28;20030;-70
2021/12/11 09:44:46;;;;;;;8.40;4.67;;;;;;;;;;5035795;28;20022;-72
2021/12/11 09:47:24;;;;;;;7.23;4.80;;;;;;;;;;5035992;28;20045;-71
2021/12/11 09:49:56;;;;;;;9.07;4.97;;;;;;;;;;5034700;28;20048;-71
2021/12/11 09:52:23;;;;;;;7.70;4.82;;;;;;;;;;5035499;28;20479;-71
2021/12/11 09:55:12;;;;;;;7.77;5.30;;;;;;;;;;5035037;28;20048;-71
2021/12/11 09:57:42;;;;;;;8.47;4.87;;;;;;;;;;5027875;28;20033;-72
2021/12/11 10:00:11;;;;;;;7.37;4.93;;;;;;;;;;5035531;28;20025;-71
2021/12/11 10:02:37;;;;;;;6.67;4.47;;;;;;;;;;5035152;28;20050;-71
2021/12/11 10:05:12;;;;;;;13.13;6.63;;;;;;;;;;5035168;28;20036;-72
2021/12/11 10:07:49;;;;;;;7.03;4.93;;;;;;;;;;5035111;28;20243;-72
2021/12/11 10:10:15;;;;;;;8.37;5.13;;;;;;;;;;5035342;28;20018;-71
2021/12/11 10:12:44;;;;;;;9.57;5.80;;;;;;;;;;5035036;28;20029;-72
2021/12/11 10:15:20;;;;;;;21.47;5.80;;;;;;;;;;5034643;28;20028;-76
2021/12/11 10:17:50;;;;;;;13.67;5.43;;;;;;;;;;5035535;28;20370;-71
2021/12/11 10:20:25;;;;;;;8.87;5.33;;;;;;;;;;5034573;28;20179;-71
2021/12/11 10:22:52;;;;;;;8.63;5.63;;;;;;;;;;5034089;28;20482;-72
2021/12/11 10:25:21;;;;;;;11.77;6.47;;;;;;;;;;5035425;28;20029;-73
2021/12/11 10:27:48;;;;;;;46.50;21.20;;;;;;;;;;5035413;28;20037;-71
2021/12/11 10:30:16;;;;;;;10.40;5.60;;;;;;;;;;5035117;28;20017;-71
2021/12/11 10:32:43;;;;;;;32.37;23.57;;;;;;;;;;5035097;28;20025;-72
2021/12/11 10:35:15;;;;;;;8.03;5.07;;;;;;;;;;5035168;28;20053;-73
2021/12/11 10:37:41;;;;;;;10.73;5.05;;;;;;;;;;5033723;28;20512;-70
2021/12/11 10:40:17;;;;;;;8.77;5.23;;;;;;;;;;5035267;28;20393;-72
2021/12/11 10:42:44;;;;;;;7.83;5.00;;;;;;;;;;5034950;28;20363;-72
2021/12/11 10:45:12;;;;;;;8.00;4.97;;;;;;;;;;5034692;28;20026;-70
2021/12/11 10:47:40;;;;;;;5.13;3.93;;;;;;;;;;5034738;28;20111;-72
2021/12/11 10:50:09;;;;;;;7.23;4.77;;;;;;;;;;5034810;28;20394;-70
2021/12/11 10:52:36;;;;;;;5.17;3.80;;;;;;;;;;5034745;28;20033;-73
2021/12/11 10:55:04;;;;;;;8.97;4.30;;;;;;;;;;5034740;28;20573;-72
2021/12/11 10:57:32;;;;;;;5.90;3.80;;;;;;;;;;5034877;28;20053;-71
2021/12/11 10:59:59;;;;;;;7.03;4.80;;;;;;;;;;5035044;28;20053;-72
2021/12/11 11:02:28;;;;;;;9.17;4.77;;;;;;;;;;5034213;28;20046;-74
2021/12/11 11:05:03;;;;;;;8.73;4.87;;;;;;;;;;5034270;28;20432;-72
2021/12/11 11:07:30;;;;;;;6.27;4.50;;;;;;;;;;5034175;28;20033;-71
2021/12/11 11:10:01;;;;;;;7.73;4.60;;;;;;;;;;5034218;28;20032;-71
2021/12/11 11:12:28;;;;;;;6.97;4.37;;;;;;;;;;5034425;28;20375;-72
2021/12/11 11:14:55;;;;;;;6.83;4.30;;;;;;;;;;5033007;28;20112;-71
2021/12/11 11:17:23;;;;;;;6.50;4.20;;;;;;;;;;5034427;28;20040;-72
2021/12/11 11:19:51;;;;;;;6.23;4.07;;;;;;;;;;5034154;28;20474;-71
2021/12/11 11:22:28;;;;;;;6.30;3.97;;;;;;;;;;5034169;28;20084;-71
2021/12/11 11:24:56;;;;;;;5.80;3.63;;;;;;;;;;5034147;28;20033;-70
2021/12/11 11:27:22;;;;;;;6.90;4.07;;;;;;;;;;5034062;28;20033;-71
2021/12/11 11:29:48;;;;;;;8.70;4.13;;;;;;;;;;5030825;28;20025;-71
2021/12/11 11:32:17;;;;;;;7.03;4.40;;;;;;;;;;5031174;28;20060;-70
2021/12/11 11:34:44;;;;;;;6.40;4.10;;;;;;;;;;5033053;28;20092;-71
2021/12/11 11:37:12;;;;;;;6.80;4.00;;;;;;;;;;5033567;28;20057;-71
2021/12/11 11:39:39;;;;;;;8.30;4.13;;;;;;;;;;5033338;28;20036;-71
2021/12/11 11:42:08;;;;;;;6.43;4.10;;;;;;;;;;5033463;28;20037;-72
2021/12/11 11:44:34;;;;;;;5.77;4.40;;;;;;;;;;5033687;28;20079;-71
2021/12/11 11:47:02;;;;;;;6.03;4.10;;;;;;;;;;5033572;28;20041;-72
2021/12/11 11:49:28;;;;;;;6.33;3.90;;;;;;;;;;5032862;28;20025;-72
2021/12/11 11:51:58;;;;;;;9.63;4.77;;;;;;;;;;5033378;28;20111;-71
2021/12/11 11:54:26;;;;;;;6.27;3.93;;;;;;;;;;5029544;28;20021;-71
2021/12/11 11:56:58;;;;;;;6.70;4.30;;;;;;;;;;5030614;28;20082;-71
2021/12/11 11:59:25;;;;;;;6.88;3.78;;;;;;;;;;5031422;28;20029;-72
2021/12/11 12:01:54;;;;;;;7.20;4.30;;;;;;;;;;5033025;28;20060;-71
2021/12/11 12:04:21;;;;;;;5.73;4.00;;;;;;;;;;5033459;28;20068;-71
2021/12/11 12:06:54;;;;;;;6.00;4.13;;;;;;;;;;5033229;28;20029;-73
2021/12/11 12:09:21;;;;;;;6.40;4.10;;;;;;;;;;5031458;28;20029;-70
2021/12/11 12:11:48;;;;;;;5.87;4.13;;;;;;;;;;5033129;28;20053;-71
2021/12/11 12:14:17;;;;;;;6.87;4.53;;;;;;;;;;5033447;28;20024;-70
2021/12/11 12:16:44;;;;;;;6.27;4.33;;;;;;;;;;5032393;28;20096;-71
2021/12/11 12:19:10;;;;;;;7.00;4.23;;;;;;;;;;5030482;28;20033;-71
2021/12/11 12:21:37;;;;;;;5.80;4.10;;;;;;;;;;5030267;28;20021;-71
2021/12/11 12:24:04;;;;;;;7.33;4.70;;;;;;;;;;5031621;28;20026;-71
2021/12/11 12:26:31;;;;;;;5.87;4.17;;;;;;;;;;5032925;28;20084;-71
2021/12/11 12:28:58;;;;;;;7.77;4.03;;;;;;;;;;5033086;28;20017;-72
2021/12/11 12:31:27;;;;;;;6.80;4.03;;;;;;;;;;5033038;28;20029;-71
2021/12/11 12:33:54;;;;;;;6.97;4.80;;;;;;;;;;5033353;28;20358;-71
2021/12/11 12:36:21;;;;;;;6.83;4.33;;;;;;;;;;5032945;28;20033;-71
2021/12/11 12:38:48;;;;;;;5.60;3.80;;;;;;;;;;5033081;28;20022;-71
2021/12/11 12:41:24;;;;;;;6.87;4.10;;;;;;;;;;5032378;28;20516;-71
2021/12/11 12:46:20;;;;;;;6.27;3.90;;;;;;;;;;5032417;28;20033;-71
2021/12/11 12:48:46;;;;;;;5.37;3.63;;;;;;;;;;5032468;28;20036;-71
2021/12/11 12:51:13;;;;;;;6.10;4.03;;;;;;;;;;5032616;28;20029;-72
2021/12/11 12:53:44;;;;;;;8.00;4.13;;;;;;;;;;5031318;28;20048;-71
2021/12/11 12:56:12;;;;;;;5.73;3.90;;;;;;;;;;5032504;28;20022;-70
2021/12/11 12:58:44;;;;;;;7.37;4.23;;;;;;;;;;5032330;28;20056;-70
2021/12/11 13:01:20;;;;;;;7.00;4.07;;;;;;;;;;5033431;28;20029;-71
2021/12/11 13:03:48;;;;;;;6.50;4.37;;;;;;;;;;5035389;28;20485;-72
2021/12/11 13:06:17;;;;;;;6.03;3.90;;;;;;;;;;5036089;28;20466;-74
2021/12/11 13:08:45;;;;;;;7.23;4.03;;;;;;;;;;5036151;28;20500;-71
2021/12/11 13:11:14;;;;;;;8.50;4.40;;;;;;;;;;5035892;28;20018;-71
2021/12/11 13:13:40;;;;;;;8.23;4.33;;;;;;;;;;5036634;28;20064;-70
2021/12/11 13:16:17;;;;;;;5.53;4.23;;;;;;;;;;5035814;28;20033;-70
2021/12/11 13:18:48;;;;;;;7.10;4.77;;;;;;;;;;5035840;28;20053;-69
2021/12/11 13:21:27;;;;;;;7.63;4.90;;;;;;;;;;5036084;28;20481;-71
2021/12/11 13:23:54;;;;;;;7.17;4.57;;;;;;;;;;5036451;28;20025;-70
2021/12/11 13:26:22;;;;;;;6.17;4.33;;;;;;;;;;5035529;28;20026;-74
2021/12/11 13:28:54;;;;;;;6.10;4.37;;;;;;;;;;5035063;28;20048;-71
2021/12/11 13:31:23;;;;;;;5.85;4.20;;;;;;;;;;5034888;28;20022;-72
2021/12/11 13:33:51;;;;;;;6.77;4.53;;;;;;;;;;5033790;28;20021;-71
2021/12/11 13:36:20;;;;;;;7.67;4.07;;;;;;;;;;5032841;28;20410;-72
2021/12/11 13:38:48;;;;;;;6.80;4.47;;;;;;;;;;5032223;28;20021;-71
2021/12/11 13:41:18;;;;;;;8.37;4.30;;;;;;;;;;5035958;28;20029;-71
2021/12/11 13:43:44;;;;;;;5.83;4.30;;;;;;;;;;5035357;28;20029;-70
2021/12/11 13:46:15;;;;;;;6.17;4.67;;;;;;;;;;5035215;28;20470;-72
2021/12/11 13:48:42;;;;;;;6.17;4.33;;;;;;;;;;5034988;28;20029;-71
2021/12/11 13:51:11;;;;;;;22.77;9.87;;;;;;;;;;5034775;28;20119;-72
2021/12/11 13:53:38;;;;;;;7.17;4.70;;;;;;;;;;5034977;28;20390;-73
2021/12/11 13:56:06;;;;;;;6.17;4.20;;;;;;;;;;5035266;28;20480;-71
2021/12/11 13:58:32;;;;;;;6.43;4.47;;;;;;;;;;5034162;28;20464;-71
2021/12/11 14:01:01;;;;;;;8.30;5.37;;;;;;;;;;5035640;28;20029;-71
2021/12/11 14:03:31;;;;;;;5.90;3.93;;;;;;;;;;5035140;28;20021;-71
2021/12/11 14:05:59;;;;;;;7.63;4.70;;;;;;;;;;5034311;28;20036;-71
2021/12/11 14:08:26;;;;;;;7.47;4.83;;;;;;;;;;5033736;28;20044;-71
2021/12/11 14:10:53;;;;;;;7.30;4.77;;;;;;;;;;5034254;28;20044;-71
2021/12/11 14:13:20;;;;;;;6.67;4.40;;;;;;;;;;5033322;28;20036;-72
2021/12/11 14:15:47;;;;;;;9.93;5.37;;;;;;;;;;5034652;28;20028;-71
2021/12/11 14:18:14;;;;;;;7.63;5.03;;;;;;;;;;5034759;28;20033;-71
2021/12/11 14:20:40;;;;;;;9.13;5.00;;;;;;;;;;5034717;28;20037;-71
2021/12/11 14:23:08;;;;;;;8.17;5.00;;;;;;;;;;5035737;28;20064;-71
2021/12/11 14:25:34;;;;;;;7.83;5.00;;;;;;;;;;5035474;28;20030;-71
2021/12/11 14:28:02;;;;;;;9.13;6.00;;;;;;;;;;5035300;28;20045;-71
2021/12/11 14:30:29;;;;;;;16.37;8.23;;;;;;;;;;5035640;28;20394;-73
2021/12/11 14:32:55;;;;;;;15.50;8.00;;;;;;;;;;5035294;28;20026;-71
2021/12/11 14:35:23;;;;;;;11.77;7.07;;;;;;;;;;5035257;28;20109;-71
2021/12/11 14:37:49;;;;;;;9.33;5.30;;;;;;;;;;5035205;28;20371;-72
2021/12/11 14:40:18;;;;;;;9.37;5.20;;;;;;;;;;5035266;28;20025;-71
2021/12/11 14:42:44;;;;;;;9.43;5.00;;;;;;;;;;5034987;28;20033;-72
2021/12/11 14:45:14;;;;;;;8.43;4.80;;;;;;;;;;5035060;28;20439;-71
2021/12/11 14:47:41;;;;;;;7.03;4.70;;;;;;;;;;5035275;28;20163;-72
2021/12/11 14:50:09;;;;;;;13.63;4.50;;;;;;;;;;5034753;28;20021;-71
2021/12/11 14:52:35;;;;;;;6.93;4.00;;;;;;;;;;5034760;28;20071;-71
2021/12/11 14:55:03;;;;;;;8.20;4.87;;;;;;;;;;5034797;28;20109;-71
2021/12/11 14:57:29;;;;;;;7.37;5.10;;;;;;;;;;5034986;28;20026;-72
2021/12/11 14:59:58;;;;;;;8.57;5.40;;;;;;;;;;5034754;28;20159;-72